Time;durP1;ratioP1;P1;durP2;ratioP2;P2;SDS_P1;SDS_P2;PMS_P1;PMS_P2;Temp;Humidity;BMP_temperature;BMP_pressure;BME280_temperature;BME280_humidity;BME280_pressure;Samples;Min_cycle;Max_cycle;Signal;HPM_P1;HPM_P2
2023/03/13 00:00:15;;;;;;;;;3.33;3.00;;;;;17.25;100.00;100495.31;4987090;28;45486;-75
2023/03/13 00:02:44;;;;;;;;;7.00;5.00;;;;;17.30;100.00;100487.34;4981731;28;45304;-74
2023/03/13 00:05:09;;;;;;;;;3.00;3.00;;;;;17.12;100.00;100457.63;4985272;28;45575;-76
2023/03/13 00:07:35;;;;;;;;;4.33;4.33;;;;;17.34;100.00;100477.66;4981237;28;48133;-76
2023/03/13 00:10:00;;;;;;;;;2.00;1.33;;;;;17.30;100.00;100468.97;4982628;28;45364;-76
2023/03/13 00:12:25;;;;;;;;;3.00;3.00;;;;;17.53;100.00;100479.72;4988222;28;45280;-76
2023/03/13 00:14:50;;;;;;;;;3.00;2.00;;;;;17.38;100.00;100473.47;4988264;28;45543;-76
2023/03/13 00:17:16;;;;;;;;;5.00;3.00;;;;;17.49;100.00;100473.75;4991108;28;47255;-76
2023/03/13 00:19:41;;;;;;;;;3.33;3.33;;;;;17.47;100.00;100480.50;4987731;28;45491;-76
2023/03/13 00:22:07;;;;;;;;;4.00;4.00;;;;;17.42;100.00;100472.00;5019071;28;45540;-76
2023/03/13 00:24:32;;;;;;;;;5.67;3.33;;;;;17.44;100.00;100467.19;4985515;28;45325;-76
2023/03/13 00:27:02;;;;;;;;;5.33;2.67;;;;;17.50;100.00;100460.88;5001001;28;47166;-76
2023/03/13 00:29:29;;;;;;;;;3.00;3.00;;;;;17.60;100.00;100457.78;4987213;28;45364;-76
2023/03/13 00:31:54;;;;;;;;;3.33;2.33;;;;;17.53;100.00;100455.00;4990518;28;45308;-76
2023/03/13 00:34:19;;;;;;;;;3.67;3.00;;;;;17.64;100.00;100459.97;5017222;28;45318;-76
2023/03/13 00:36:45;;;;;;;;;3.00;3.00;;;;;17.70;100.00;100463.78;4995417;28;46873;-76
2023/03/13 00:39:10;;;;;;;;;2.00;2.00;;;;;17.65;100.00;100456.16;4986294;28;45334;-76
2023/03/13 00:41:36;;;;;;;;;3.00;1.33;;;;;17.72;100.00;100465.28;5020846;28;45411;-76
2023/03/13 00:44:03;;;;;;;;;5.00;2.67;;;;;17.70;100.00;100458.28;4986737;28;45497;-76
2023/03/13 00:46:29;;;;;;;;;2.67;2.67;;;;;17.71;100.00;100449.00;4988484;28;47561;-76
2023/03/13 00:48:55;;;;;;;;;2.00;2.00;;;;;17.75;100.00;100456.63;4984856;28;45590;-76
2023/03/13 00:51:25;;;;;;;;;5.00;3.00;;;;;17.71;100.00;100455.34;4992200;28;45399;-76
2023/03/13 00:53:51;;;;;;;;;1.33;1.33;;;;;17.69;100.00;100429.97;4984350;28;45533;-76
2023/03/13 00:56:17;;;;;;;;;2.00;2.00;;;;;17.85;100.00;100446.13;4991709;28;45319;-76
2023/03/13 00:58:45;;;;;;;;;3.00;3.00;;;;;17.79;100.00;100451.59;4985522;28;45580;-76
2023/03/13 01:01:22;;;;;;;;;2.00;2.00;;;;;17.79;100.00;100459.84;4989612;28;45428;-75
2023/03/13 01:03:50;;;;;;;;;2.00;2.00;;;;;17.80;100.00;100451.41;4985253;28;45337;-76
2023/03/13 01:06:20;;;;;;;;;3.00;3.00;;;;;17.74;100.00;100454.97;5019608;28;47011;-76
2023/03/13 01:08:45;;;;;;;;;2.00;2.00;;;;;17.63;100.00;100440.91;4985291;28;45451;-76
2023/03/13 01:11:14;;;;;;;;;4.33;3.00;;;;;17.67;100.00;100444.97;4985590;28;45438;-76
2023/03/13 01:13:40;;;;;;;;;3.00;3.00;;;;;17.58;100.00;100432.41;4984733;28;45479;-76
2023/03/13 01:16:11;;;;;;;;;3.33;2.00;;;;;17.54;100.00;100420.97;4986547;28;48218;-76
2023/03/13 01:18:39;;;;;;;;;2.00;2.00;;;;;17.73;100.00;100413.94;4985292;28;45494;-76
2023/03/13 01:21:05;;;;;;;;;3.00;3.00;;;;;17.68;100.00;100398.03;4987024;28;45260;-76
2023/03/13 01:23:31;;;;;;;;;2.33;1.00;;;;;17.71;100.00;100396.81;4985527;28;45239;-76
2023/03/13 01:25:57;;;;;;;;;2.67;2.67;;;;;17.73;100.00;100390.06;4992312;28;45577;-76
2023/03/13 01:28:24;;;;;;;;;5.67;3.67;;;;;17.79;100.00;100407.63;4983879;28;45336;-76
2023/03/13 01:30:50;;;;;;;;;6.00;6.00;;;;;17.76;100.00;100395.13;4991060;28;45264;-76
2023/03/13 01:33:16;;;;;;;;;5.67;4.67;;;;;17.75;100.00;100382.44;4985620;28;45447;-76
2023/03/13 01:35:44;;;;;;;;;4.67;3.00;;;;;17.78;100.00;100383.94;4989395;28;45624;-76
2023/03/13 01:38:09;;;;;;;;;4.00;4.00;;;;;17.78;100.00;100376.56;4990182;28;45371;-75
2023/03/13 01:40:46;;;;;;;;;5.33;3.33;;;;;17.86;100.00;100383.78;4988155;28;45432;-75
2023/03/13 01:43:26;;;;;;;;;4.00;2.00;;;;;17.91;100.00;100397.75;4985685;28;45329;-75
2023/03/13 01:46:13;;;;;;;;;4.00;3.00;;;;;17.82;100.00;100391.59;4987923;28;45646;-75
2023/03/13 01:49:03;;;;;;;;;6.67;4.00;;;;;17.70;100.00;100393.19;4984750;28;45344;-75
2023/03/13 01:51:33;;;;;;;;;3.00;3.00;;;;;17.77;100.00;100382.25;4999236;28;45418;-75
2023/03/13 01:54:14;;;;;;;;;6.00;4.00;;;;;17.76;100.00;100375.91;5014871;28;45466;-75
2023/03/13 01:56:47;;;;;;;;;5.00;5.00;;;;;17.84;100.00;100350.16;4989572;28;45383;-75
2023/03/13 01:59:16;;;;;;;;;4.00;4.00;;;;;17.78;100.00;100353.72;5007894;28;45519;-75
2023/03/13 02:01:45;;;;;;;;;5.00;4.00;;;;;17.77;100.00;100332.78;4985580;28;45565;-75
2023/03/13 02:04:11;;;;;;;;;4.67;4.00;;;;;17.62;100.00;100335.69;4997764;28;45534;-75
2023/03/13 02:06:42;;;;;;;;;6.33;5.33;;;;;17.51;100.00;100345.31;4984491;28;46694;-75
2023/03/13 02:09:13;;;;;;;;;3.00;3.00;;;;;17.69;100.00;100333.81;4985383;28;45526;-75
2023/03/13 02:11:48;;;;;;;;;7.33;6.00;;;;;17.74;100.00;100330.47;4990805;28;45466;-75
2023/03/13 02:14:17;;;;;;;;;6.67;5.00;;;;;17.70;100.00;100332.75;5016844;28;45272;-75
2023/03/13 02:16:47;;;;;;;;;6.33;5.00;;;;;17.43;100.00;100326.25;4994368;28;47423;-75
2023/03/13 02:19:18;;;;;;;;;4.00;4.00;;;;;17.62;100.00;100343.91;4985518;28;45257;-75
2023/03/13 02:21:54;;;;;;;;;7.00;4.67;;;;;17.52;100.00;100337.94;4983777;28;45355;-75
2023/03/13 02:24:26;;;;;;;;;5.67;4.00;;;;;17.49;100.00;100322.69;4985284;28;45382;-75
2023/03/13 02:26:51;;;;;;;;;4.67;4.33;;;;;17.64;100.00;100322.59;4988563;28;45530;-74
2023/03/13 02:29:17;;;;;;;;;7.00;6.00;;;;;17.67;100.00;100335.94;4984406;28;45306;-75
2023/03/13 02:31:44;;;;;;;;;2.33;2.33;;;;;17.61;100.00;100306.50;4988101;28;45406;-76
2023/03/13 02:34:16;;;;;;;;;7.00;5.67;;;;;17.67;100.00;100311.22;5015714;28;45215;-75
2023/03/13 02:36:43;;;;;;;;;4.33;4.33;;;;;17.66;100.00;100297.66;4986557;28;45514;-75
2023/03/13 02:39:11;;;;;;;;;8.00;6.67;;;;;17.60;100.00;100304.81;4983472;28;45601;-75
2023/03/13 02:41:38;;;;;;;;;6.00;5.33;;;;;17.45;100.00;100279.38;5019876;28;45338;-76
2023/03/13 02:44:04;;;;;;;;;7.00;5.00;;;;;17.63;100.00;100298.91;4984766;28;45223;-75
2023/03/13 02:46:31;;;;;;;;;5.33;5.33;;;;;17.74;100.00;100309.34;4987798;28;46196;-75
2023/03/13 02:48:56;;;;;;;;;5.67;5.33;;;;;17.31;100.00;100310.56;4998690;28;45441;-75
2023/03/13 02:51:39;;;;;;;;;5.00;5.00;;;;;17.58;100.00;100301.41;4989858;28;45515;-75
2023/03/13 02:54:13;;;;;;;;;5.33;5.33;;;;;17.55;100.00;100295.47;4980970;28;45295;-75
2023/03/13 02:56:41;;;;;;;;;8.00;4.67;;;;;17.31;100.00;100283.13;5019345;28;46268;-75
2023/03/13 02:59:06;;;;;;;;;4.67;4.67;;;;;17.53;100.00;100273.72;4974329;28;45503;-75
2023/03/13 03:01:31;;;;;;;;;4.00;4.00;;;;;17.48;100.00;100271.56;4985628;28;45883;-76
2023/03/13 03:03:57;;;;;;;;;8.00;5.00;;;;;17.59;100.00;100272.88;4973971;28;45301;-76
2023/03/13 03:06:22;;;;;;;;;4.67;4.67;;;;;17.50;100.00;100266.72;4986404;28;45472;-75
2023/03/13 03:08:47;;;;;;;;;5.00;5.00;;;;;17.69;100.00;100265.13;4983599;28;45244;-75
2023/03/13 03:11:13;;;;;;;;;5.00;3.00;;;;;17.67;100.00;100270.00;5016480;28;45382;-75
2023/03/13 03:13:38;;;;;;;;;5.33;4.00;;;;;17.74;100.00;100257.13;4983805;28;45374;-76
2023/03/13 03:16:14;;;;;;;;;5.00;4.00;;;;;17.64;100.00;100266.78;4985902;28;46000;-76
2023/03/13 03:18:40;;;;;;;;;3.00;3.00;;;;;17.58;100.00;100251.97;4982151;28;45514;-76
2023/03/13 03:21:06;;;;;;;;;4.67;4.67;;;;;17.64;100.00;100262.16;4986041;28;45304;-76
2023/03/13 03:23:32;;;;;;;;;5.00;5.00;;;;;17.64;100.00;100259.41;4983842;28;45344;-75
2023/03/13 03:25:58;;;;;;;;;5.00;5.00;;;;;17.66;100.00;100271.03;4988917;28;46537;-75
2023/03/13 03:28:23;;;;;;;;;8.00;4.00;;;;;17.48;100.00;100251.47;4983214;28;45181;-75
2023/03/13 03:30:49;;;;;;;;;6.00;6.00;;;;;17.56;100.00;100248.56;4988253;28;45495;-75
2023/03/13 03:33:14;;;;;;;;;4.67;4.00;;;;;17.64;100.00;100270.38;4982547;28;45340;-75
2023/03/13 03:35:39;;;;;;;;;7.67;6.00;;;;;17.55;100.00;100268.00;4987886;28;46471;-76
2023/03/13 03:38:05;;;;;;;;;6.33;5.00;;;;;17.74;100.00;100270.88;4982934;28;45346;-75
2023/03/13 03:40:30;;;;;;;;;4.00;4.00;;;;;17.81;100.00;100268.13;4988088;28;45339;-75
2023/03/13 03:42:56;;;;;;;;;7.33;4.00;;;;;17.85;100.00;100264.75;4983456;28;45241;-76
2023/03/13 03:45:21;;;;;;;;;5.00;5.00;;;;;17.86;100.00;100274.69;4987413;28;46415;-75
2023/03/13 03:47:46;;;;;;;;;4.00;4.00;;;;;17.90;100.00;100273.22;4989767;28;45551;-75
2023/03/13 03:50:12;;;;;;;;;6.33;4.67;;;;;17.80;100.00;100266.44;4993528;28;45265;-75
2023/03/13 03:52:37;;;;;;;;;8.00;6.67;;;;;17.75;100.00;100275.28;4985427;28;45675;-76
2023/03/13 03:55:03;;;;;;;;;4.67;4.67;;;;;17.75;100.00;100283.53;5022915;28;45682;-76
2023/03/13 03:57:28;;;;;;;;;4.67;4.67;;;;;17.69;100.00;100275.25;4986643;28;45460;-76
2023/03/13 03:59:54;;;;;;;;;4.00;4.00;;;;;17.69;100.00;100262.38;4988692;28;45384;-75
2023/03/13 04:02:19;;;;;;;;;6.67;6.67;;;;;17.77;100.00;100255.84;4986882;28;45688;-75
2023/03/13 04:04:44;;;;;;;;;7.00;6.00;;;;;17.61;100.00;100257.06;4987491;28;45329;-76
2023/03/13 04:07:10;;;;;;;;;3.67;2.67;;;;;17.63;100.00;100274.19;4984984;28;45620;-75
2023/03/13 04:09:35;;;;;;;;;7.33;4.33;;;;;17.81;100.00;100271.72;4989204;28;45590;-76
2023/03/13 04:12:00;;;;;;;;;6.00;4.67;;;;;17.85;100.00;100272.16;4996656;28;45649;-76
2023/03/13 04:14:26;;;;;;;;;7.67;5.67;;;;;17.80;100.00;100266.44;5019111;28;46805;-76
2023/03/13 04:16:51;;;;;;;;;5.67;4.00;;;;;17.67;100.00;100280.97;4988172;28;45180;-76
2023/03/13 04:19:16;;;;;;;;;5.33;5.33;;;;;17.80;100.00;100269.19;4987760;28;45335;-75
2023/03/13 04:21:42;;;;;;;;;3.33;3.33;;;;;17.75;100.00;100252.47;4986699;28;45237;-75
2023/03/13 04:24:07;;;;;;;;;7.00;5.00;;;;;17.85;100.00;100262.00;4986415;28;50000;-75
2023/03/13 04:26:32;;;;;;;;;6.00;2.67;;;;;17.81;100.00;100266.22;4988850;28;45676;-76
2023/03/13 04:28:58;;;;;;;;;5.00;5.00;;;;;17.81;100.00;100263.47;4985835;28;45296;-75
2023/03/13 04:31:23;;;;;;;;;5.67;4.67;;;;;17.86;100.00;100271.09;4990846;28;45300;-75
2023/03/13 04:33:48;;;;;;;;;6.00;6.00;;;;;17.80;100.00;100259.03;4985609;28;45504;-74
2023/03/13 04:36:14;;;;;;;;;4.00;4.00;;;;;17.65;100.00;100261.09;4988088;28;45919;-76
2023/03/13 04:38:39;;;;;;;;;8.67;4.00;;;;;17.70;100.00;100260.47;4985744;28;45340;-75
2023/03/13 04:41:04;;;;;;;;;5.33;4.33;;;;;17.64;100.00;100248.41;4990885;28;45390;-74
2023/03/13 04:43:30;;;;;;;;;4.33;4.33;;;;;17.85;100.00;100267.50;4987266;28;46438;-76
2023/03/13 04:45:55;;;;;;;;;7.00;5.00;;;;;17.80;100.00;100264.53;4989973;28;45333;-75
2023/03/13 04:48:21;;;;;;;;;4.00;2.33;;;;;17.46;100.00;100259.06;4985441;28;45343;-74
2023/03/13 04:50:47;;;;;;;;;7.67;5.00;;;;;17.74;100.00;100268.13;4991703;28;45613;-75
2023/03/13 04:53:12;;;;;;;;;4.00;4.00;;;;;17.58;100.00;100262.94;4984906;28;45312;-75
2023/03/13 04:55:38;;;;;;;;;6.67;5.00;;;;;17.39;100.00;100247.22;4990515;28;45555;-75
2023/03/13 04:58:03;;;;;;;;;7.00;5.67;;;;;17.68;100.00;100271.66;4984951;28;45472;-79
2023/03/13 05:00:28;;;;;;;;;6.00;6.00;;;;;17.82;100.00;100278.91;4988339;28;45446;-75
2023/03/13 05:02:54;;;;;;;;;5.33;5.33;;;;;17.77;100.00;100256.69;4983875;28;48348;-76
2023/03/13 05:05:19;;;;;;;;;6.67;5.00;;;;;17.71;100.00;100257.53;4986726;28;45396;-76
2023/03/13 05:07:44;;;;;;;;;2.00;2.00;;;;;17.85;100.00;100269.41;4984651;28;45261;-75
2023/03/13 05:10:10;;;;;;;;;5.00;5.00;;;;;17.91;100.00;100268.56;4989071;28;45546;-75
2023/03/13 05:12:35;;;;;;;;;4.33;4.33;;;;;17.75;100.00;100247.78;4983312;28;47416;-77
2023/03/13 05:15:00;;;;;;;;;5.67;5.67;;;;;17.76;100.00;100249.50;4990825;28;45197;-75
2023/03/13 05:17:26;;;;;;;;;7.00;6.33;;;;;17.62;100.00;100253.25;5021526;28;45271;-74
2023/03/13 05:19:51;;;;;;;;;10.00;8.33;;;;;17.67;100.00;100231.53;4987409;28;45328;-76
2023/03/13 05:22:16;;;;;;;;;6.67;5.00;;;;;17.70;100.00;100243.97;4988152;28;47943;-75
2023/03/13 05:24:41;;;;;;;;;7.00;7.00;;;;;17.63;100.00;100226.63;4985590;28;46361;-75
2023/03/13 05:27:07;;;;;;;;;2.00;2.00;;;;;17.26;100.00;100241.66;4985643;28;45439;-76
2023/03/13 05:29:32;;;;;;;;;4.67;4.67;;;;;17.45;100.00;100235.44;4985408;28;45462;-77
2023/03/13 05:31:57;;;;;;;;;8.33;6.00;;;;;17.35;100.00;100235.81;5019365;28;46548;-77
2023/03/13 05:34:23;;;;;;;;;7.33;7.33;;;;;17.56;100.00;100248.56;4985120;28;45837;-77
2023/03/13 05:36:48;;;;;;;;;8.00;6.00;;;;;17.53;100.00;100249.00;4985531;28;45619;-77
2023/03/13 05:39:13;;;;;;;;;6.33;5.00;;;;;17.65;100.00;100252.84;4984185;28;45666;-77
2023/03/13 05:41:39;;;;;;;;;8.00;5.00;;;;;17.61;100.00;100248.81;4984082;28;47307;-81
2023/03/13 05:44:04;;;;;;;;;8.00;8.00;;;;;17.62;100.00;100241.41;4984403;28;45582;-77
2023/03/13 05:46:30;;;;;;;;;8.33;8.00;;;;;17.77;100.00;100244.84;4985770;28;45763;-79
2023/03/13 05:48:55;;;;;;;;;6.00;6.00;;;;;17.76;100.00;100255.00;4982394;28;45595;-77
2023/03/13 05:51:21;;;;;;;;;6.33;6.33;;;;;17.63;100.00;100237.63;5023029;28;46915;-78
2023/03/13 05:53:46;;;;;;;;;14.00;9.33;;;;;17.71;100.00;100246.53;4982975;28;45419;-78
2023/03/13 05:56:11;;;;;;;;;10.00;7.33;;;;;17.61;100.00;100234.19;4988593;28;45415;-77
2023/03/13 05:58:37;;;;;;;;;6.67;6.67;;;;;17.62;100.00;100235.94;4983040;28;45397;-77
2023/03/13 06:01:10;;;;;;;;;9.00;7.00;;;;;17.60;100.00;100227.88;4985054;28;49755;-78
2023/03/13 06:03:35;;;;;;;;;8.00;7.67;;;;;17.60;100.00;100238.88;4983204;28;45476;-78
2023/03/13 06:06:01;;;;;;;;;6.67;5.00;;;;;17.61;100.00;100226.84;4986105;28;45704;-78
2023/03/13 06:08:26;;;;;;;;;8.33;7.00;;;;;17.57;100.00;100228.28;4982678;28;45595;-77
2023/03/13 06:10:52;;;;;;;;;7.00;7.00;;;;;17.59;100.00;100220.69;4987553;28;46841;-78
2023/03/13 06:13:17;;;;;;;;;9.67;8.00;;;;;17.72;100.00;100220.75;4981618;28;45602;-79
2023/03/13 06:15:42;;;;;;;;;6.67;6.67;;;;;17.65;100.00;100219.88;4992736;28;45283;-77
2023/03/13 06:18:08;;;;;;;;;18.33;12.67;;;;;17.70;100.00;100213.75;4986527;28;45589;-79
2023/03/13 06:20:33;;;;;;;;;6.00;6.00;;;;;17.64;100.00;100212.69;4985444;28;45362;-78
2023/03/13 06:22:59;;;;;;;;;7.67;7.67;;;;;17.52;100.00;100208.84;4984867;28;45440;-78
2023/03/13 06:25:24;;;;;;;;;6.00;6.00;;;;;17.58;100.00;100188.78;4985810;28;45699;-79
2023/03/13 06:27:49;;;;;;;;;7.00;7.00;;;;;17.62;100.00;100201.06;4985902;28;45313;-81
2023/03/13 06:30:15;;;;;;;;;8.33;8.33;;;;;17.46;100.00;100199.50;5000083;28;46531;-77
2023/03/13 06:32:40;;;;;;;;;9.67;7.00;;;;;17.67;100.00;100201.31;4983101;28;45190;-80
2023/03/13 06:35:06;;;;;;;;;9.00;6.00;;;;;17.51;100.00;100213.47;4986835;28;45365;-77
2023/03/13 06:37:32;;;;;;;;;9.67;7.33;;;;;17.52;100.00;100195.97;4985462;28;45249;-78
2023/03/13 06:39:57;;;;;;;;;4.67;4.67;;;;;17.51;100.00;100177.78;4988213;28;45399;-82
2023/03/13 06:42:23;;;;;;;;;6.00;6.00;;;;;17.50;100.00;100184.31;4983133;28;45237;-77
2023/03/13 06:44:48;;;;;;;;;7.67;6.00;;;;;17.47;100.00;100172.88;5017902;28;45602;-77
2023/03/13 06:47:13;;;;;;;;;8.00;5.33;;;;;17.59;100.00;100195.13;4986557;28;45444;-77
2023/03/13 06:49:39;;;;;;;;;7.33;6.00;;;;;17.39;100.00;100175.81;4983685;28;47279;-80
2023/03/13 06:52:04;;;;;;;;;6.33;6.33;;;;;17.40;100.00;100169.28;4982909;28;52029;-78
2023/03/13 06:54:29;;;;;;;;;4.67;4.67;;;;;17.29;100.00;100178.13;4977102;28;45461;-78
2023/03/13 06:56:55;;;;;;;;;6.00;6.00;;;;;17.29;100.00;100180.88;4986998;28;45306;-78
2023/03/13 06:59:20;;;;;;;;;5.33;5.33;;;;;17.36;100.00;100181.75;4983881;28;46662;-78
2023/03/13 07:01:46;;;;;;;;;10.67;8.33;;;;;17.31;100.00;100181.53;4980526;28;45485;-76
2023/03/13 07:04:12;;;;;;;;;9.00;7.00;;;;;17.33;100.00;100149.19;4981850;28;45443;-78
2023/03/13 07:06:37;;;;;;;;;10.67;7.00;;;;;17.39;100.00;100184.06;4984247;28;45479;-77
2023/03/13 07:09:03;;;;;;;;;8.33;6.67;;;;;17.49;100.00;100184.53;4982705;28;45507;-78
2023/03/13 07:11:29;;;;;;;;;3.00;3.00;;;;;17.41;100.00;100168.22;4995704;28;45380;-78
2023/03/13 07:13:55;;;;;;;;;6.67;4.00;;;;;17.27;100.00;100167.34;4981981;28;45434;-78
2023/03/13 07:16:21;;;;;;;;;5.00;4.00;;;;;17.43;100.00;100177.13;4986144;28;45357;-78
2023/03/13 07:18:46;;;;;;;;;6.33;6.33;;;;;17.65;100.00;100170.44;4981362;28;46775;-77
2023/03/13 07:21:13;;;;;;;;;7.67;7.67;;;;;17.67;100.00;100178.47;4983898;28;46271;-78
2023/03/13 07:23:38;;;;;;;;;8.00;6.00;;;;;17.52;100.00;100182.22;4981786;28;45245;-78
2023/03/13 07:26:11;;;;;;;;;8.67;7.67;;;;;17.67;100.00;100167.50;4989845;28;45268;-78
2023/03/13 07:28:37;;;;;;;;;6.33;5.00;;;;;17.59;100.00;100160.25;4980032;28;47511;-79
2023/03/13 07:31:06;;;;;;;;;5.00;5.00;;;;;17.50;100.00;100167.00;4985145;28;45282;-79
2023/03/13 07:33:32;;;;;;;;;7.00;5.67;;;;;17.70;100.00;100151.41;5014216;28;45301;-78
2023/03/13 07:35:57;;;;;;;;;2.00;1.00;;;;;17.57;100.00;100145.03;4986161;28;45429;-78
2023/03/13 07:38:22;;;;;;;;;8.00;7.67;;;;;17.84;100.00;100158.63;5012911;28;46469;-77
2023/03/13 07:40:56;;;;;;;;;6.33;6.00;;;;;17.79;100.00;100150.19;4986119;28;45450;-76
2023/03/13 07:43:23;;;;;;;;;7.00;7.00;;;;;17.99;100.00;100150.19;4979685;28;45478;-81
2023/03/13 07:45:57;;;;;;;;;5.67;4.00;;;;;18.07;100.00;100151.88;4991479;28;45392;-81
2023/03/13 07:48:24;;;;;;;;;7.33;6.00;;;;;18.05;100.00;100132.84;4994564;28;46980;-79
2023/03/13 07:50:49;;;;;;;;;7.00;7.00;;;;;17.77;100.00;100133.03;4988324;28;45398;-78
2023/03/13 07:53:21;;;;;;;;;8.67;6.00;;;;;17.92;100.00;100134.75;5012259;28;45472;-81
2023/03/13 07:56:17;;;;;;;;;6.00;5.00;;;;;18.01;100.00;100130.72;4986530;28;45426;-78
2023/03/13 07:58:43;;;;;;;;;7.33;6.33;;;;;18.18;100.00;100123.75;4979934;28;45735;-77
2023/03/13 08:01:15;;;;;;;;;8.67;7.00;;;;;18.06;100.00;100128.19;4984088;28;45435;-78
2023/03/13 08:03:41;;;;;;;;;8.00;5.67;;;;;18.00;100.00;100129.88;5011141;28;45366;-82
2023/03/13 08:06:09;;;;;;;;;6.00;6.00;;;;;17.85;100.00;100130.09;5015893;28;45374;-79
2023/03/13 08:08:35;;;;;;;;;7.00;7.00;;;;;17.86;100.00;100118.03;4981164;28;46449;-78
2023/03/13 08:11:03;;;;;;;;;3.33;3.33;;;;;17.88;100.00;100139.81;4984693;28;45225;-79
2023/03/13 08:13:29;;;;;;;;;7.00;5.00;;;;;17.88;100.00;100132.44;4983813;28;45216;-78
2023/03/13 08:16:18;;;;;;;;;5.67;5.67;;;;;18.00;100.00;100127.13;4984792;28;45540;-79
2023/03/13 08:18:45;;;;;;;;;10.00;7.33;;;;;17.97;100.00;100111.06;4972264;28;46687;-77
2023/03/13 08:21:17;;;;;;;;;5.67;5.33;;;;;17.81;100.00;100115.09;4986481;28;45344;-77
2023/03/13 08:23:43;;;;;;;;;10.00;5.67;;;;;17.79;100.00;100122.69;4974362;28;45400;-78
2023/03/13 08:26:10;;;;;;;;;10.33;6.67;;;;;17.87;100.00;100130.72;4982545;28;45450;-78
2023/03/13 08:28:36;;;;;;;;;5.67;4.33;;;;;17.79;100.00;100108.09;4980795;28;47210;-79
2023/03/13 08:31:11;;;;;;;;;6.67;6.00;;;;;17.87;100.00;100106.00;4986173;28;45483;-79
2023/03/13 08:33:37;;;;;;;;;7.00;6.00;;;;;18.05;100.00;100093.50;4984687;28;45343;-79
2023/03/13 08:36:24;;;;;;;;;9.00;7.67;;;;;18.07;100.00;100107.88;4982758;28;45478;-81
2023/03/13 08:38:50;;;;;;;;;5.33;5.33;;;;;18.11;100.00;100096.28;4984262;28;47126;-79
2023/03/13 08:41:21;;;;;;;;;5.00;5.00;;;;;18.12;100.00;100108.09;4988519;28;45624;-78
2023/03/13 08:43:47;;;;;;;;;7.33;5.00;;;;;18.13;100.00;100107.03;4984369;28;45415;-80
2023/03/13 08:46:14;;;;;;;;;5.67;5.00;;;;;18.16;100.00;100098.38;4993420;28;45651;-79
2023/03/13 08:48:39;;;;;;;;;8.00;5.00;;;;;18.23;100.00;100096.47;4990372;28;45412;-78
2023/03/13 08:51:08;;;;;;;;;4.00;4.00;;;;;17.87;100.00;100083.16;4985513;28;45325;-79
2023/03/13 08:53:34;;;;;;;;;5.00;5.00;;;;;18.14;100.00;100087.59;5016969;28;45431;-79
2023/03/13 08:56:00;;;;;;;;;5.00;5.00;;;;;18.22;100.00;100079.09;5021345;28;45318;-79
2023/03/13 08:58:26;;;;;;;;;8.00;8.00;;;;;18.30;100.00;100072.53;4985723;28;45273;-78
2023/03/13 09:00:52;;;;;;;;;6.00;5.67;;;;;18.32;100.00;100084.19;4986785;28;45343;-78
2023/03/13 09:03:18;;;;;;;;;2.33;2.33;;;;;18.35;100.00;100066.38;4986541;28;45247;-78
2023/03/13 09:05:44;;;;;;;;;6.00;6.00;;;;;18.56;100.00;100068.88;4993541;28;45550;-79
2023/03/13 09:08:10;;;;;;;;;4.00;4.00;;;;;18.53;100.00;100052.81;4989613;28;46198;-78
2023/03/13 09:10:35;;;;;;;;;3.00;3.00;;;;;18.28;100.00;100042.50;4986744;28;45340;-79
2023/03/13 09:13:01;;;;;;;;;4.00;4.00;;;;;18.44;100.00;100054.09;4987198;28;45276;-79
2023/03/13 09:15:26;;;;;;;;;4.33;2.67;;;;;18.34;100.00;100048.22;4991994;28;45368;-79
2023/03/13 09:17:52;;;;;;;;;10.67;8.00;;;;;18.61;100.00;100036.94;4988972;28;45348;-79
2023/03/13 09:20:18;;;;;;;;;6.33;5.33;;;;;18.79;100.00;100036.22;4988661;28;45252;-78
2023/03/13 09:22:44;;;;;;;;;9.33;9.00;;;;;18.89;100.00;100033.00;4989567;28;45497;-79
2023/03/13 09:25:10;;;;;;;;;6.67;3.67;;;;;18.78;100.00;100028.16;4990907;28;45375;-77
2023/03/13 09:27:36;;;;;;;;;4.67;3.33;;;;;18.49;100.00;100024.88;5016635;28;47037;-79
2023/03/13 09:30:01;;;;;;;;;4.00;4.00;;;;;18.53;100.00;100026.13;4983681;28;45357;-79
2023/03/13 09:32:26;;;;;;;;;8.67;7.33;;;;;18.27;100.00;100016.06;4987165;28;45348;-78
2023/03/13 09:34:52;;;;;;;;;6.67;6.33;;;;;18.46;100.00;100028.06;4989972;28;45362;-78
2023/03/13 09:37:17;;;;;;;;;5.00;5.00;;;;;18.29;100.00;100005.69;4984726;28;46437;-77
2023/03/13 09:39:42;;;;;;;;;7.00;6.00;;;;;18.28;100.00;100008.66;5020126;28;48977;-78
2023/03/13 09:42:08;;;;;;;;;9.33;5.00;;;;;18.18;100.00;100011.88;4988488;28;45253;-77
2023/03/13 09:44:45;;;;;;;;;5.00;5.00;;;;;18.19;100.00;100013.53;4995914;28;45352;-81
2023/03/13 09:47:23;;;;;;;;;9.00;8.00;;;;;18.39;100.00;100013.50;4989694;28;45675;-78
2023/03/13 09:49:55;;;;;;;;;7.67;7.00;;;;;18.51;100.00;100000.75;4988280;28;45411;-78
2023/03/13 09:52:24;;;;;;;;;8.00;6.67;;;;;18.51;100.00;100000.75;4985898;28;45415;-80
2023/03/13 09:54:55;;;;;;;;;8.67;5.67;;;;;18.46;100.00;100002.47;4987825;28;45275;-77
2023/03/13 09:57:24;;;;;;;;;5.67;5.00;;;;;18.60;100.00;99993.13;4984605;28;45420;-80
2023/03/13 09:59:57;;;;;;;;;2.00;1.00;;;;;18.75;100.00;99990.09;4991459;28;45568;-77
2023/03/13 10:02:34;;;;;;;;;7.00;6.00;;;;;18.73;100.00;99982.06;5027294;28;45337;-80
2023/03/13 10:05:27;;;;;;;;;5.00;5.00;;;;;18.50;100.00;99963.28;4987712;28;45396;-79
2023/03/13 10:08:07;;;;;;;;;4.00;4.00;;;;;18.67;100.00;99969.19;4983825;28;47426;-79
2023/03/13 10:10:43;;;;;;;;;7.00;6.00;;;;;18.82;100.00;99964.22;4993621;28;45430;-78
2023/03/13 10:13:25;;;;;;;;;3.67;3.67;;;;;19.02;100.00;99973.19;4983871;28;45364;-79
2023/03/13 10:15:55;;;;;;;;;4.00;4.00;;;;;18.89;100.00;99972.44;4991023;28;45533;-81
2023/03/13 10:18:23;;;;;;;;;6.00;3.33;;;;;18.85;100.00;99979.47;4984418;28;47016;-80
2023/03/13 10:20:57;;;;;;;;;5.00;3.00;;;;;18.85;100.00;99966.50;4993988;28;45617;-79
2023/03/13 10:23:33;;;;;;;;;3.33;2.00;;;;;18.94;100.00;99961.59;4997237;28;45472;-80
2023/03/13 10:25:58;;;;;;;;;5.00;5.00;;;;;18.92;100.00;99963.75;4998755;28;45244;-80
2023/03/13 10:28:24;;;;;;;;;5.33;3.67;;;;;18.98;100.00;99958.19;4987497;28;45423;-81
2023/03/13 10:30:56;;;;;;;;;5.00;3.67;;;;;19.09;100.00;99953.03;4987442;28;45570;-79
2023/03/13 10:33:24;;;;;;;;;3.00;3.00;;;;;19.25;100.00;99947.81;4993417;28;45523;-81
2023/03/13 10:36:11;;;;;;;;;2.67;2.00;;;;;19.50;100.00;99938.75;4979813;28;45350;-81
2023/03/13 10:38:52;;;;;;;;;5.67;3.33;;;;;19.33;100.00;99936.53;4985795;28;45597;-80
2023/03/13 10:41:30;;;;;;;;;4.33;4.00;;;;;19.52;100.00;99923.66;4991413;28;45415;-80
2023/03/13 10:44:03;;;;;;;;;3.00;3.00;;;;;19.56;100.00;99926.81;4985687;28;45194;-77
2023/03/13 10:46:31;;;;;;;;;4.67;3.67;;;;;19.47;100.00;99923.50;5011805;28;45453;-80
2023/03/13 10:49:01;;;;;;;;;5.33;4.67;;;;;19.60;100.00;99928.88;4992008;28;45316;-81
2023/03/13 10:51:38;;;;;;;;;5.33;5.00;;;;;19.74;100.00;99916.66;4997730;28;45370;-81
2023/03/13 10:54:38;;;;;;;;;4.00;3.00;;;;;19.68;100.00;99919.47;5005349;28;45294;-80
2023/03/13 10:57:08;;;;;;;;;2.00;2.00;;;;;19.56;100.00;99900.13;4993298;28;45595;-80
2023/03/13 10:59:43;;;;;;;;;4.67;3.00;;;;;19.75;100.00;99895.44;4990415;28;45362;-79
2023/03/13 11:02:30;;;;;;;;;2.00;2.00;;;;;19.65;100.00;99893.22;5006121;28;45273;-80
2023/03/13 11:04:56;;;;;;;;;4.00;2.33;;;;;20.14;100.00;99881.22;4989271;28;45295;-79
2023/03/13 11:07:26;;;;;;;;;4.00;4.00;;;;;20.40;100.00;99912.28;4987918;28;45672;-80
2023/03/13 11:10:18;;;;;;;;;2.00;2.00;;;;;20.59;100.00;99889.13;4988767;28;46506;-79
2023/03/13 11:12:48;;;;;;;;;5.67;5.00;;;;;20.80;100.00;99901.56;4989831;28;45424;-79
2023/03/13 11:15:28;;;;;;;;;3.67;3.00;;;;;21.04;100.00;99891.41;4989221;28;45486;-80
2023/03/13 11:18:04;;;;;;;;;4.00;2.33;;;;;21.16;100.00;99878.47;5008526;28;45366;-79
2023/03/13 11:20:35;;;;;;;;;3.33;3.00;;;;;20.79;100.00;99908.16;4987366;28;47010;-78